This is the latest recevied weather packets stored in our database for station/object LRSM. If no packets are shown the sender has not sent any weather packets the latest 1 day(s).
| Time | Temp. | Humidity | Pressure | Rain* | Wind** | Luminosity | Snow |
|---|---|---|---|---|---|---|---|
| 1778026713 | 10° C | 67% | 1011 hPa | - | 0.89 m/s, 100° | - | - |
| 1778025813 | 10° C | 67% | 1011 hPa | - | 0.89 m/s, 100° | - | - |
| 1778024912 | 10° C | 67% | 1011 hPa | - | 0.45 m/s, 90° | - | - |
| 1778024012 | 10° C | 67% | 1011 hPa | - | 0.45 m/s, 90° | - | - |
| 1778023112 | 10° C | 67% | 1011 hPa | - | 0.89 m/s, 90° | - | - |
| 1778022213 | 10° C | 67% | 1011 hPa | - | 0.89 m/s, 90° | - | - |
| 1778021313 | 11.11° C | 62% | 1011 hPa | - | 0.89 m/s, 100° | - | - |
| 1778020412 | 11.11° C | 62% | 1011 hPa | - | 0.89 m/s, 100° | - | - |
| 1778019509 | 12.22° C | 58% | 1011 hPa | - | 1.34 m/s, 180° | - | - |
| 1778018612 | 12.22° C | 58% | 1011 hPa | - | 1.34 m/s, 180° | - | - |
| 1778017713 | 12.78° C | 63% | 1011 hPa | - | 2.24 m/s, 190° | - | - |
| 1778016813 | 12.78° C | 63% | 1011 hPa | - | 2.24 m/s, 190° | - | - |
| 1778015912 | 13.89° C | 55% | 1011 hPa | - | 1.34 m/s, 180° | - | - |
| 1778015012 | 13.89° C | 55% | 1011 hPa | - | 1.34 m/s, 180° | - | - |
| 1778014114 | 13.89° C | 59% | 1011 hPa | - | 2.68 m/s, 190° | - | - |
| 1778013212 | 13.89° C | 59% | 1011 hPa | - | 2.68 m/s, 190° | - | - |
| 1778012343 | 15° C | 55% | 1011 hPa | - | 2.68 m/s, 190° | - | - |
| 1778011413 | 15° C | 55% | 1011 hPa | - | 2.68 m/s, 190° | - | - |
| 1778010512 | 16.11° C | 52% | 1011 hPa | - | 2.24 m/s, 170° | - | - |
| 1778009612 | 16.11° C | 52% | 1011 hPa | - | 2.24 m/s, 170° | - | - |
| 1778008712 | 17.78° C | 46% | 1011 hPa | - | 2.24 m/s, 160° | - | - |
| 1778007812 | 17.78° C | 46% | 1011 hPa | - | 2.24 m/s, 160° | - | - |
| 1778006913 | 18.89° C | 40% | 1011 hPa | - | 1.34 m/s, 180° | - | - |
| 1778006013 | 18.89° C | 40% | 1011 hPa | - | 1.34 m/s, 180° | - | - |
| 1778005113 | 21.11° C | 38% | 1011 hPa | - | 2.24 m/s, 240° | - | - |
* Rain since midnight (hover to see other rain measurements)
** Current wind speed in m/s (hover to see current wind gust speed)